Time;durP1;ratioP1;P1;durP2;ratioP2;P2;SDS_P1;SDS_P2;PMS_P1;PMS_P2;Temp;Humidity;BMP_temperature;BMP_pressure;BME280_temperature;BME280_humidity;BME280_pressure;Samples;Min_cycle;Max_cycle;Signal;HPM_P1;HPM_P2
2023/12/12 00:02:13;;;;;;;157.95;107.32;;;7.30;99.90;;;;;;5003685;28;20045;-77
2023/12/12 00:04:41;;;;;;;149.10;101.32;;;7.40;99.90;;;;;;5003434;28;20084;-76
2023/12/12 00:07:10;;;;;;;145.45;98.47;;;7.50;99.90;;;;;;5004737;28;20034;-75
2023/12/12 00:09:38;;;;;;;157.27;107.25;;;7.50;99.90;;;;;;5004692;28;20628;-78
2023/12/12 00:12:06;;;;;;;159.90;108.43;;;7.60;99.90;;;;;;5005448;28;20090;-78
2023/12/12 00:14:33;;;;;;;176.07;110.47;;;7.60;99.90;;;;;;5007881;28;20046;-74
2023/12/12 00:17:01;;;;;;;166.27;104.18;;;7.60;99.90;;;;;;5009373;28;20046;-77
2023/12/12 00:19:28;;;;;;;191.98;116.72;;;7.70;99.90;;;;;;5004844;28;20499;-75
2023/12/12 00:21:56;;;;;;;197.63;119.82;;;7.60;99.90;;;;;;5001505;28;20046;-75
2023/12/12 00:24:25;;;;;;;194.77;116.50;;;7.60;99.90;;;;;;5004088;28;20046;-76
2023/12/12 00:26:53;;;;;;;178.32;106.90;;;7.50;99.90;;;;;;5004144;28;20113;-75
2023/12/12 00:29:20;;;;;;;220.80;132.70;;;7.60;99.90;;;;;;5003904;28;20049;-78
2023/12/12 00:31:48;;;;;;;193.73;114.90;;;7.70;99.90;;;;;;5004853;28;20054;-76
2023/12/12 00:34:16;;;;;;;239.48;140.57;;;7.70;99.90;;;;;;5003290;28;20442;-77
2023/12/12 00:36:43;;;;;;;216.88;128.38;;;7.70;99.90;;;;;;5002947;28;20117;-76
2023/12/12 00:39:11;;;;;;;185.00;112.35;;;7.70;99.90;;;;;;5003019;28;20050;-75
2023/12/12 00:41:40;;;;;;;177.05;107.88;;;7.70;99.90;;;;;;5001619;28;20046;-75
2023/12/12 00:44:07;;;;;;;164.25;102.15;;;7.80;99.90;;;;;;5003300;28;20074;-76
2023/12/12 00:46:35;;;;;;;206.68;125.05;;;7.80;99.90;;;;;;5002344;28;20046;-75
2023/12/12 00:49:03;;;;;;;160.48;96.88;;;7.70;99.90;;;;;;5003929;28;20048;-77
2023/12/12 00:51:30;;;;;;;210.27;126.35;;;7.70;99.90;;;;;;5007516;28;20133;-77
2023/12/12 00:53:58;;;;;;;187.07;115.13;;;7.60;99.90;;;;;;5005990;28;20489;-77
2023/12/12 00:56:25;;;;;;;230.13;137.93;;;7.50;99.90;;;;;;5003905;28;20046;-75
2023/12/12 00:58:54;;;;;;;238.38;140.05;;;7.60;99.90;;;;;;5017003;28;20267;-75
2023/12/12 01:01:22;;;;;;;211.75;126.68;;;7.50;99.90;;;;;;5014784;28;20057;-76
2023/12/12 01:03:49;;;;;;;200.00;121.78;;;7.60;99.90;;;;;;5011469;28;20050;-75
2023/12/12 01:06:24;;;;;;;220.52;128.50;;;7.60;99.90;;;;;;5011863;28;20044;-77
2023/12/12 01:08:52;;;;;;;182.30;109.57;;;7.60;99.90;;;;;;5015365;28;20046;-76
2023/12/12 01:11:20;;;;;;;154.50;91.32;;;7.60;99.90;;;;;;5018996;28;20141;-75
2023/12/12 01:13:48;;;;;;;156.38;86.15;;;7.60;99.90;;;;;;5005838;28;20157;-78
2023/12/12 01:16:17;;;;;;;150.90;90.25;;;7.60;99.90;;;;;;5002395;28;20113;-77
2023/12/12 01:18:44;;;;;;;136.80;81.35;;;7.70;99.90;;;;;;5004684;28;20052;-76
2023/12/12 01:21:12;;;;;;;142.20;85.38;;;7.70;99.90;;;;;;5003753;28;20445;-77
2023/12/12 01:23:51;;;;;;;126.80;77.05;;;7.80;99.90;;;;;;4985371;28;20042;-78
2023/12/12 01:26:20;;;;;;;134.50;81.88;;;7.80;99.90;;;;;;5001854;28;20450;-75
2023/12/12 01:28:48;;;;;;;141.68;91.18;;;7.90;99.90;;;;;;5004874;28;20069;-76
2023/12/12 01:31:18;;;;;;;136.50;86.32;;;7.80;99.90;;;;;;5002128;28;20054;-77
2023/12/12 01:33:45;;;;;;;134.63;86.22;;;7.80;99.90;;;;;;5001746;28;20517;-76
2023/12/12 01:36:13;;;;;;;128.85;81.97;;;7.80;99.90;;;;;;5002077;28;20044;-76
2023/12/12 01:38:41;;;;;;;134.50;83.75;;;7.90;99.90;;;;;;4982850;28;20130;-76
2023/12/12 01:41:08;;;;;;;137.90;81.63;;;7.80;99.90;;;;;;5001420;28;20084;-77
2023/12/12 01:43:36;;;;;;;157.25;91.30;;;7.80;99.90;;;;;;5002006;28;20089;-76
2023/12/12 01:46:07;;;;;;;175.70;97.68;;;7.80;99.90;;;;;;5002549;28;20046;-77
2023/12/12 01:48:37;;;;;;;161.27;98.45;;;7.60;99.90;;;;;;5001028;28;20894;-77
2023/12/12 01:51:05;;;;;;;158.32;98.43;;;7.70;99.90;;;;;;5005315;28;20049;-78
2023/12/12 01:53:37;;;;;;;151.80;95.90;;;7.70;99.90;;;;;;5011652;28;20124;-78
2023/12/12 01:56:06;;;;;;;194.20;122.85;;;7.80;99.90;;;;;;5005257;28;20038;-75
2023/12/12 01:58:34;;;;;;;174.45;116.47;;;7.80;99.90;;;;;;5004726;28;20046;-77
2023/12/12 02:01:01;;;;;;;219.23;137.35;;;7.80;99.90;;;;;;5013455;28;20038;-78
2023/12/12 02:03:31;;;;;;;190.70;126.68;;;7.80;99.90;;;;;;5006523;28;20658;-78
2023/12/12 02:06:00;;;;;;;230.05;146.70;;;7.80;99.90;;;;;;4984641;28;20034;-76
2023/12/12 02:08:28;;;;;;;253.07;161.52;;;7.80;99.90;;;;;;5001628;28;20406;-78
2023/12/12 02:10:56;;;;;;;266.08;169.18;;;7.90;99.90;;;;;;5001538;28;20129;-78
2023/12/12 02:13:24;;;;;;;264.13;164.77;;;7.80;99.90;;;;;;4982413;28;20054;-77
2023/12/12 02:15:51;;;;;;;290.95;194.40;;;7.80;99.90;;;;;;5003921;28;20045;-78
2023/12/12 02:18:19;;;;;;;204.30;126.95;;;7.80;99.90;;;;;;5001742;28;20482;-78
2023/12/12 02:20:46;;;;;;;175.25;110.85;;;7.80;99.90;;;;;;4999093;28;20050;-77
2023/12/12 02:23:15;;;;;;;181.55;112.95;;;7.80;99.90;;;;;;5001041;28;20092;-78
2023/12/12 02:25:43;;;;;;;160.32;102.10;;;7.90;99.90;;;;;;5000702;28;20073;-75
2023/12/12 02:28:13;;;;;;;170.88;96.68;;;7.80;99.90;;;;;;4984922;28;20058;-76
2023/12/12 02:30:42;;;;;;;178.43;94.70;;;7.70;99.90;;;;;;4983050;28;20054;-76
2023/12/12 02:33:10;;;;;;;226.13;109.70;;;7.70;99.90;;;;;;5000701;28;20046;-74
2023/12/12 02:35:37;;;;;;;309.85;140.55;;;7.60;99.90;;;;;;4999319;28;20406;-75
2023/12/12 02:38:05;;;;;;;191.70;108.70;;;7.50;99.90;;;;;;4984694;28;20054;-76
2023/12/12 02:40:34;;;;;;;178.70;101.65;;;7.30;99.90;;;;;;4998972;28;20050;-75
2023/12/12 02:43:02;;;;;;;138.10;83.15;;;7.50;99.90;;;;;;5000030;28;20093;-76
2023/12/12 02:45:29;;;;;;;98.13;63.47;;;7.60;99.90;;;;;;4980449;28;20077;-78
2023/12/12 02:47:59;;;;;;;109.25;68.57;;;7.60;99.90;;;;;;5000735;28;20045;-78
2023/12/12 02:50:26;;;;;;;112.80;68.38;;;7.70;99.90;;;;;;4981242;28;20104;-77
2023/12/12 02:52:54;;;;;;;123.45;72.13;;;7.70;99.90;;;;;;4999445;28;20038;-76
2023/12/12 02:55:21;;;;;;;125.45;77.05;;;7.70;99.90;;;;;;4999767;28;20042;-78
2023/12/12 02:57:51;;;;;;;140.10;84.90;;;7.70;99.90;;;;;;4998589;28;20057;-77
2023/12/12 03:00:19;;;;;;;137.95;83.50;;;7.80;99.90;;;;;;5000288;28;20038;-77
2023/12/12 03:02:47;;;;;;;133.43;81.95;;;7.80;99.90;;;;;;4999969;28;20046;-74
2023/12/12 03:05:14;;;;;;;122.00;79.22;;;7.70;99.90;;;;;;5000050;28;20042;-76
2023/12/12 03:07:42;;;;;;;115.57;72.32;;;7.70;99.90;;;;;;5000834;28;20093;-76
2023/12/12 03:10:11;;;;;;;111.45;71.35;;;7.70;99.90;;;;;;4982790;28;20100;-75
2023/12/12 03:12:38;;;;;;;110.43;68.03;;;7.80;99.90;;;;;;5000750;28;20050;-76
2023/12/12 03:15:08;;;;;;;118.78;73.18;;;7.80;99.90;;;;;;5000031;28;20406;-75
2023/12/12 03:17:35;;;;;;;109.57;70.10;;;7.70;99.90;;;;;;4981128;28;20053;-75
2023/12/12 03:20:03;;;;;;;109.88;68.20;;;7.60;99.90;;;;;;5000869;28;20693;-78
2023/12/12 03:22:31;;;;;;;114.25;72.13;;;7.50;99.90;;;;;;5000173;28;20069;-78
2023/12/12 03:25:00;;;;;;;92.75;61.92;;;7.50;99.90;;;;;;4999829;28;20042;-75
2023/12/12 03:27:27;;;;;;;93.47;61.33;;;7.40;99.90;;;;;;5000015;28;20045;-78
2023/12/12 03:29:55;;;;;;;89.40;58.85;;;7.40;99.90;;;;;;4999729;28;20058;-79
2023/12/12 03:32:24;;;;;;;88.28;59.45;;;7.40;99.90;;;;;;4999498;28;20041;-76
2023/12/12 03:34:52;;;;;;;86.68;58.55;;;7.30;99.90;;;;;;4998985;28;20051;-76
2023/12/12 03:37:19;;;;;;;69.93;50.78;;;7.20;99.90;;;;;;5002081;28;20045;-78
2023/12/12 03:39:47;;;;;;;87.78;62.45;;;7.30;99.90;;;;;;5003118;28;20050;-80
2023/12/12 03:42:14;;;;;;;80.78;59.60;;;7.30;99.90;;;;;;5001712;28;20076;-78
2023/12/12 03:44:42;;;;;;;83.57;61.13;;;7.40;99.90;;;;;;4998009;28;20552;-76
2023/12/12 03:47:09;;;;;;;79.38;57.35;;;7.40;99.90;;;;;;4999692;28;20046;-77
2023/12/12 03:49:38;;;;;;;71.45;52.80;;;7.50;99.90;;;;;;5001032;28;20046;-77
2023/12/12 03:52:06;;;;;;;81.00;54.17;;;7.60;99.90;;;;;;5001167;28;20069;-78
2023/12/12 03:54:36;;;;;;;73.57;50.85;;;7.60;99.90;;;;;;4998459;28;20050;-75
2023/12/12 03:57:04;;;;;;;80.13;52.13;;;7.60;99.90;;;;;;4979734;28;20051;-77
2023/12/12 03:59:31;;;;;;;77.72;50.70;;;7.60;99.90;;;;;;4999867;28;20129;-77
2023/12/12 04:01:59;;;;;;;88.57;56.17;;;7.60;99.90;;;;;;4997346;28;20038;-78
2023/12/12 04:04:26;;;;;;;86.38;55.90;;;7.60;99.90;;;;;;4994025;28;20034;-76
2023/12/12 04:06:55;;;;;;;112.50;70.38;;;7.40;99.90;;;;;;4997370;28;20414;-75
2023/12/12 04:09:23;;;;;;;88.20;57.00;;;7.30;99.90;;;;;;4993170;28;20042;-77
2023/12/12 04:11:50;;;;;;;81.43;53.35;;;7.20;99.90;;;;;;4997851;28;20030;-75
2023/12/12 04:14:18;;;;;;;88.10;55.22;;;7.30;99.90;;;;;;4998419;28;20673;-77
2023/12/12 04:16:46;;;;;;;86.90;57.95;;;7.30;99.90;;;;;;4998372;28;20104;-74
2023/12/12 04:19:13;;;;;;;86.10;57.05;;;7.40;99.90;;;;;;4998727;28;20119;-75
2023/12/12 04:21:43;;;;;;;61.90;38.65;;;7.30;99.90;;;;;;4980630;28;20512;-76
2023/12/12 04:24:12;;;;;;;65.63;41.70;;;7.30;99.90;;;;;;4999235;28;20049;-78
2023/12/12 04:26:40;;;;;;;58.65;37.40;;;7.20;99.90;;;;;;5000109;28;20085;-77
2023/12/12 04:29:07;;;;;;;49.22;31.25;;;7.00;99.90;;;;;;5001038;28;20129;-78
2023/12/12 04:31:35;;;;;;;51.38;34.80;;;7.00;99.90;;;;;;5005242;28;20561;-76
2023/12/12 04:34:03;;;;;;;57.95;36.10;;;7.10;99.90;;;;;;5000032;28;20133;-75
2023/12/12 04:36:30;;;;;;;55.47;35.50;;;7.10;99.90;;;;;;5001807;28;20042;-78
2023/12/12 04:38:58;;;;;;;64.95;41.25;;;7.10;99.90;;;;;;4998821;28;20062;-76
2023/12/12 04:41:27;;;;;;;61.63;39.85;;;7.10;99.90;;;;;;5000109;28;20033;-77
2023/12/12 04:43:54;;;;;;;60.92;38.75;;;7.10;99.90;;;;;;5002152;28;20491;-77
2023/12/12 04:46:22;;;;;;;56.17;35.08;;;7.00;99.90;;;;;;5004218;28;20039;-77
2023/12/12 04:48:50;;;;;;;59.58;37.20;;;7.00;99.90;;;;;;5019506;28;20041;-77
2023/12/12 04:51:17;;;;;;;45.45;31.42;;;7.10;99.90;;;;;;5008099;28;20046;-77
2023/12/12 04:53:45;;;;;;;54.53;35.55;;;7.10;99.90;;;;;;5028248;28;20056;-76
2023/12/12 04:56:13;;;;;;;56.30;38.75;;;7.10;99.90;;;;;;5025606;28;20037;-76
2023/12/12 04:58:42;;;;;;;52.33;37.63;;;7.00;99.90;;;;;;5024678;28;20096;-77
2023/12/12 05:01:09;;;;;;;61.75;42.60;;;7.00;99.90;;;;;;5023584;28;20042;-78
2023/12/12 05:03:37;;;;;;;61.60;43.45;;;7.10;99.90;;;;;;5011958;28;20038;-77
2023/12/12 05:06:06;;;;;;;57.50;38.95;;;7.10;99.90;;;;;;5001913;28;20117;-76
2023/12/12 05:08:33;;;;;;;59.25;40.30;;;7.10;99.90;;;;;;4985071;28;20149;-75
2023/12/12 05:11:02;;;;;;;55.22;39.35;;;7.10;99.90;;;;;;5002646;28;20633;-77
2023/12/12 05:13:29;;;;;;;49.25;35.83;;;7.10;99.90;;;;;;5001108;28;20046;-76
2023/12/12 05:15:58;;;;;;;51.70;35.38;;;7.10;99.90;;;;;;5002775;28;20061;-75
2023/12/12 05:18:26;;;;;;;65.18;44.47;;;7.10;99.90;;;;;;4985736;28;20395;-75
2023/12/12 05:20:54;;;;;;;63.33;41.03;;;7.10;99.90;;;;;;5003234;28;20038;-76
2023/12/12 05:23:21;;;;;;;63.83;43.10;;;7.00;99.90;;;;;;5002334;28;20042;-75
2023/12/12 05:25:49;;;;;;;57.88;39.75;;;6.90;99.90;;;;;;5002749;28;20046;-77
2023/12/12 05:28:19;;;;;;;61.88;39.45;;;6.80;99.90;;;;;;5004014;28;20096;-77
2023/12/12 05:30:46;;;;;;;59.97;39.67;;;6.80;99.90;;;;;;5006054;28;20042;-76
2023/12/12 05:33:16;;;;;;;53.17;36.00;;;6.80;99.90;;;;;;5004963;28;20101;-76
2023/12/12 05:35:44;;;;;;;60.72;42.58;;;6.70;99.90;;;;;;5006602;28;20134;-76
2023/12/12 05:38:11;;;;;;;58.17;38.33;;;6.80;99.90;;;;;;5006929;28;20355;-77
2023/12/12 05:40:39;;;;;;;50.03;34.22;;;6.80;99.90;;;;;;5000348;28;20498;-77
2023/12/12 05:43:07;;;;;;;76.97;43.70;;;6.80;99.90;;;;;;5003226;28;20186;-76
2023/12/12 05:45:34;;;;;;;74.45;41.53;;;6.90;99.90;;;;;;5002810;28;20042;-77
2023/12/12 05:48:03;;;;;;;72.75;43.60;;;6.90;99.90;;;;;;5000756;28;20449;-77
2023/12/12 05:50:32;;;;;;;67.90;41.22;;;6.90;99.90;;;;;;5003049;28;20069;-76
2023/12/12 05:53:00;;;;;;;71.78;44.70;;;7.00;99.90;;;;;;5002040;28;20043;-75
2023/12/12 05:55:29;;;;;;;50.08;30.88;;;7.00;99.90;;;;;;5004801;28;20042;-76
2023/12/12 05:57:57;;;;;;;73.70;41.72;;;7.00;99.90;;;;;;5016516;28;20042;-78
2023/12/12 06:00:27;;;;;;;72.28;48.33;;;7.00;99.90;;;;;;5017369;28;20242;-77
2023/12/12 06:02:55;;;;;;;77.15;52.15;;;7.00;99.90;;;;;;5008652;28;20052;-76
2023/12/12 06:05:23;;;;;;;69.13;44.38;;;7.00;99.90;;;;;;5000530;28;20378;-78
2023/12/12 06:07:51;;;;;;;75.75;46.72;;;7.00;99.90;;;;;;5003407;28;20100;-76
2023/12/12 06:10:19;;;;;;;74.45;47.53;;;6.80;99.90;;;;;;5002191;28;20130;-79
2023/12/12 06:12:47;;;;;;;79.75;48.75;;;6.70;99.90;;;;;;4988671;28;20084;-77
2023/12/12 06:15:15;;;;;;;86.18;53.60;;;6.70;99.90;;;;;;5004371;28;20057;-76
2023/12/12 06:17:42;;;;;;;101.07;63.05;;;6.50;99.90;;;;;;5001396;28;20034;-75
2023/12/12 06:20:11;;;;;;;82.15;53.78;;;6.40;99.90;;;;;;5004458;28;20129;-76
2023/12/12 06:22:39;;;;;;;87.00;55.30;;;6.10;99.90;;;;;;5002350;28;20477;-76
2023/12/12 06:25:10;;;;;;;85.28;53.35;;;6.10;99.90;;;;;;4983005;28;20042;-77
2023/12/12 06:27:38;;;;;;;90.45;58.00;;;6.10;99.90;;;;;;5000917;28;20520;-76
2023/12/12 06:30:07;;;;;;;82.65;51.53;;;6.20;99.90;;;;;;5002791;28;20054;-76
2023/12/12 06:32:34;;;;;;;84.65;51.60;;;6.30;99.90;;;;;;5000562;28;20401;-76
2023/12/12 06:35:04;;;;;;;88.07;55.10;;;6.30;99.90;;;;;;4984634;28;20112;-78
2023/12/12 06:37:31;;;;;;;88.20;57.63;;;6.30;99.90;;;;;;5000530;28;20041;-76
2023/12/12 06:40:00;;;;;;;93.40;57.47;;;6.30;99.90;;;;;;5000228;28;20446;-78
2023/12/12 06:42:29;;;;;;;98.97;62.28;;;6.50;99.90;;;;;;4999695;28;20040;-75
2023/12/12 06:44:56;;;;;;;101.65;62.95;;;6.60;99.90;;;;;;4999702;28;20133;-77
2023/12/12 06:47:24;;;;;;;100.53;63.20;;;6.70;99.90;;;;;;5000383;28;20042;-76
2023/12/12 06:49:52;;;;;;;112.85;66.53;;;6.70;99.90;;;;;;5001887;28;20295;-76
2023/12/12 06:52:20;;;;;;;110.00;67.28;;;6.80;99.90;;;;;;5001382;28;20410;-76
2023/12/12 06:54:48;;;;;;;107.15;69.13;;;6.60;99.90;;;;;;4999539;28;20133;-75
2023/12/12 06:57:16;;;;;;;103.00;64.38;;;6.50;99.90;;;;;;5003795;28;20072;-76
2023/12/12 06:59:45;;;;;;;91.18;59.05;;;6.70;99.90;;;;;;5004930;28;20056;-76
2023/12/12 07:02:12;;;;;;;99.60;65.28;;;6.70;99.90;;;;;;5004581;28;20092;-77
2023/12/12 07:04:40;;;;;;;95.15;67.28;;;6.70;99.90;;;;;;4986684;28;20510;-76
2023/12/12 07:07:09;;;;;;;116.13;79.60;;;6.70;99.90;;;;;;5002820;28;20050;-75
2023/12/12 07:09:36;;;;;;;102.57;72.82;;;6.70;99.90;;;;;;5005076;28;20050;-76
2023/12/12 07:12:06;;;;;;;137.52;92.35;;;6.60;99.90;;;;;;5009451;28;20066;-77
2023/12/12 07:14:33;;;;;;;169.50;114.13;;;6.60;99.90;;;;;;5009290;28;20034;-77
2023/12/12 07:17:02;;;;;;;197.90;126.53;;;6.60;99.90;;;;;;4984042;28;20053;-76
2023/12/12 07:19:30;;;;;;;150.60;99.07;;;6.60;99.90;;;;;;4999537;28;20092;-78
2023/12/12 07:21:58;;;;;;;144.98;95.25;;;6.70;99.90;;;;;;5003509;28;20057;-77
2023/12/12 07:24:25;;;;;;;151.52;102.07;;;6.70;99.90;;;;;;5002646;28;20453;-77
2023/12/12 07:26:55;;;;;;;173.07;113.15;;;6.70;99.90;;;;;;4982398;28;20065;-77
2023/12/12 07:29:23;;;;;;;174.07;112.32;;;6.80;99.90;;;;;;4983441;28;20056;-76
2023/12/12 07:31:51;;;;;;;164.75;107.47;;;7.00;99.90;;;;;;5002052;28;20409;-76
2023/12/12 07:34:20;;;;;;;167.40;105.90;;;7.10;99.90;;;;;;4991282;28;20443;-76
2023/12/12 07:36:49;;;;;;;160.02;106.25;;;7.10;99.90;;;;;;4998817;28;20047;-77
2023/12/12 07:39:17;;;;;;;151.43;99.72;;;7.10;99.90;;;;;;5001438;28;20050;-78
2023/12/12 07:41:44;;;;;;;123.70;85.20;;;7.10;99.90;;;;;;5002091;28;20049;-78
2023/12/12 07:44:12;;;;;;;100.10;64.13;;;7.20;99.90;;;;;;4984570;28;20049;-78
2023/12/12 07:46:41;;;;;;;99.13;64.78;;;7.20;99.90;;;;;;5002011;28;20081;-77
2023/12/12 07:49:08;;;;;;;97.25;65.47;;;7.20;99.90;;;;;;5005338;28;20073;-76
2023/12/12 07:51:37;;;;;;;91.55;62.35;;;7.40;99.90;;;;;;5010611;28;20085;-75
2023/12/12 07:54:06;;;;;;;92.13;62.00;;;7.50;99.90;;;;;;5005551;28;20211;-77
2023/12/12 07:56:33;;;;;;;99.55;67.10;;;7.70;99.90;;;;;;5001104;28;20049;-77
2023/12/12 07:59:01;;;;;;;115.82;77.35;;;7.80;99.90;;;;;;5001610;28;20076;-76
2023/12/12 08:01:29;;;;;;;95.25;61.45;;;7.90;99.90;;;;;;5000670;28;20046;-78
2023/12/12 08:03:57;;;;;;;93.28;61.25;;;7.80;99.90;;;;;;4982929;28;20110;-76
2023/12/12 08:06:24;;;;;;;106.93;70.20;;;7.60;99.90;;;;;;4982730;28;20043;-78
2023/12/12 08:08:53;;;;;;;99.00;66.57;;;7.60;99.90;;;;;;4998424;28;20149;-78
2023/12/12 08:11:24;;;;;;;102.35;69.03;;;7.70;99.90;;;;;;4998524;28;20038;-78
2023/12/12 08:13:52;;;;;;;90.97;59.95;;;8.00;99.90;;;;;;5001428;28;20050;-78
2023/12/12 08:16:19;;;;;;;86.07;56.22;;;8.30;99.90;;;;;;5004749;28;20085;-77
2023/12/12 08:18:47;;;;;;;94.57;62.20;;;8.60;99.90;;;;;;5010372;28;20518;-79
2023/12/12 08:21:14;;;;;;;91.53;59.47;;;8.70;99.90;;;;;;5009695;28;20703;-78
2023/12/12 08:23:42;;;;;;;79.45;53.10;;;8.80;99.90;;;;;;5009223;28;20034;-76
2023/12/12 08:26:12;;;;;;;76.10;50.47;;;8.90;99.90;;;;;;4989620;28;20057;-76
2023/12/12 08:28:39;;;;;;;68.45;49.58;;;9.00;99.90;;;;;;5008444;28;20042;-77
2023/12/12 08:31:07;;;;;;;80.60;53.40;;;9.10;99.90;;;;;;5004533;28;20038;-78
2023/12/12 08:33:35;;;;;;;90.18;59.50;;;9.10;99.90;;;;;;4985372;28;20565;-79
2023/12/12 08:36:03;;;;;;;92.93;64.00;;;9.20;99.90;;;;;;5004592;28;20038;-76
2023/12/12 08:38:31;;;;;;;89.15;61.80;;;9.30;99.90;;;;;;5001573;28;20038;-76
2023/12/12 08:40:59;;;;;;;85.90;59.33;;;9.30;99.90;;;;;;5004019;28;20061;-77
2023/12/12 08:43:28;;;;;;;84.60;58.28;;;9.50;99.90;;;;;;5007949;28;20054;-77
2023/12/12 08:45:56;;;;;;;91.68;64.13;;;9.60;92.90;;;;;;5010297;28;20195;-76
2023/12/12 08:48:24;;;;;;;100.70;67.10;;;9.50;1.00;;;;;;4984822;28;20074;-77
2023/12/12 08:50:53;;;;;;;99.93;68.00;;;9.60;1.00;;;;;;5003929;28;20113;-75
2023/12/12 08:53:26;;;;;;;97.05;68.35;;;9.70;1.00;;;;;;5003809;28;20064;-77
2023/12/12 08:55:55;;;;;;;93.78;64.82;;;9.90;1.00;;;;;;5001707;28;20069;-77
2023/12/12 08:58:25;;;;;;;78.63;54.58;;;10.00;1.00;;;;;;5003746;28;20038;-75
2023/12/12 09:00:55;;;;;;;98.07;67.60;;;10.20;1.00;;;;;;5003203;28;20501;-76
2023/12/12 09:03:23;;;;;;;88.85;64.03;;;10.40;99.90;;;;;;5003514;28;20038;-77
2023/12/12 09:05:50;;;;;;;102.15;72.25;;;10.50;99.90;;;;;;5004158;28;20045;-76
2023/12/12 09:08:18;;;;;;;95.72;69.05;;;10.60;1.00;;;;;;4983995;28;20046;-76
2023/12/12 09:10:46;;;;;;;95.18;65.88;;;10.70;1.00;;;;;;5002114;28;20043;-76
2023/12/12 09:13:14;;;;;;;92.85;64.28;;;10.90;1.00;;;;;;5001600;28;20049;-76
2023/12/12 09:15:42;;;;;;;75.78;50.85;;;11.10;1.00;;;;;;5002671;28;20045;-77
2023/12/12 09:18:11;;;;;;;72.18;51.30;;;11.00;99.90;;;;;;5001917;28;20057;-76
2023/12/12 09:20:39;;;;;;;66.30;46.83;;;11.00;1.00;;;;;;5003691;28;20053;-77
2023/12/12 09:23:07;;;;;;;78.32;55.17;;;11.20;1.00;;;;;;5002201;28;20467;-77
2023/12/12 09:25:34;;;;;;;69.20;49.63;;;11.20;99.90;;;;;;5004456;28;20066;-76
2023/12/12 09:28:02;;;;;;;79.05;52.75;;;11.30;1.00;;;;;;5005634;28;20053;-76
2023/12/12 09:30:29;;;;;;;81.78;56.17;;;11.30;99.90;;;;;;5004099;28;20113;-77
2023/12/12 09:32:57;;;;;;;77.75;53.55;;;11.00;1.00;;;;;;5000112;28;20046;-76
2023/12/12 09:35:26;;;;;;;74.22;52.65;;;11.10;1.00;;;;;;5004392;28;20069;-77
2023/12/12 09:37:53;;;;;;;76.82;53.92;;;11.20;1.00;;;;;;5002613;28;20074;-74
2023/12/12 09:40:22;;;;;;;80.35;53.63;;;11.40;99.90;;;;;;5005827;28;20120;-77
2023/12/12 09:42:50;;;;;;;68.95;48.55;;;11.50;1.00;;;;;;5007127;28;20139;-76
2023/12/12 09:45:18;;;;;;;91.20;61.40;;;11.60;1.00;;;;;;5008176;28;20041;-75
2023/12/12 09:47:47;;;;;;;97.78;63.67;;;11.50;1.00;;;;;;5004183;28;20046;-77
2023/12/12 09:50:14;;;;;;;107.72;65.85;;;11.60;1.00;;;;;;5003824;28;20412;-76
2023/12/12 09:52:45;;;;;;;109.25;66.22;;;11.50;1.00;;;;;;5003048;28;20048;-75
2023/12/12 09:55:14;;;;;;;104.22;68.97;;;11.60;95.40;;;;;;4999975;28;20052;-76
2023/12/12 09:57:42;;;;;;;107.00;71.88;;;11.60;1.00;;;;;;5001340;28;20038;-77
2023/12/12 10:00:10;;;;;;;112.38;75.30;;;11.60;99.90;;;;;;5002006;28;20037;-78
2023/12/12 10:02:39;;;;;;;106.13;71.80;;;11.60;99.90;;;;;;5003501;28;20045;-78
2023/12/12 10:05:09;;;;;;;107.63;71.43;;;11.50;99.90;;;;;;5001605;28;20073;-78
2023/12/12 10:07:37;;;;;;;122.68;78.80;;;11.50;99.90;;;;;;5002001;28;20061;-77
2023/12/12 10:10:12;;;;;;;103.43;68.32;;;11.50;1.00;;;;;;5002886;28;20130;-75
2023/12/12 10:12:41;;;;;;;111.10;73.67;;;11.60;1.00;;;;;;5000381;28;20067;-77
2023/12/12 10:15:22;;;;;;;119.10;79.60;;;11.50;1.00;;;;;;5002749;28;20294;-77
2023/12/12 10:17:55;;;;;;;116.65;79.70;;;11.70;1.00;;;;;;5002652;28;20034;-78
2023/12/12 10:20:26;;;;;;;121.20;81.20;;;11.80;99.90;;;;;;5003357;28;20136;-78
2023/12/12 10:22:55;;;;;;;107.05;70.50;;;12.00;1.00;;;;;;5005889;28;20110;-78
2023/12/12 10:25:25;;;;;;;88.15;59.05;;;12.10;99.90;;;;;;5006373;28;20046;-77
2023/12/12 10:27:53;;;;;;;85.38;56.20;;;12.20;1.00;;;;;;5003644;28;20042;-75
2023/12/12 10:30:22;;;;;;;93.68;61.22;;;12.30;1.00;;;;;;5004221;28;20085;-77
2023/12/12 10:32:52;;;;;;;97.65;62.13;;;12.50;99.90;;;;;;5008782;28;20514;-77
2023/12/12 10:35:20;;;;;;;90.35;57.47;;;12.50;1.00;;;;;;5009234;28;20034;-76
2023/12/12 10:37:48;;;;;;;76.40;49.72;;;12.50;1.00;;;;;;5007629;28;20042;-77
2023/12/12 10:40:16;;;;;;;59.58;40.65;;;12.60;1.00;;;;;;5004755;28;20058;-78
2023/12/12 10:42:47;;;;;;;51.67;33.60;;;12.70;1.00;;;;;;5002790;28;20120;-77
2023/12/12 10:45:15;;;;;;;49.20;33.47;;;12.70;1.00;;;;;;5000223;28;20043;-76
2023/12/12 10:47:46;;;;;;;51.28;34.58;;;12.70;99.90;;;;;;4998416;28;20619;-78
2023/12/12 10:50:14;;;;;;;56.67;38.33;;;12.70;99.90;;;;;;5002466;28;20046;-79
2023/12/12 10:52:45;;;;;;;54.53;38.03;;;12.70;99.90;;;;;;5001851;28;20417;-75
2023/12/12 10:55:14;;;;;;;49.03;33.55;;;12.70;99.90;;;;;;5000943;28;20034;-76
2023/12/12 10:57:44;;;;;;;52.50;36.17;;;12.80;74.40;;;;;;5000874;28;20046;-76
2023/12/12 11:00:15;;;;;;;54.10;36.50;;;12.90;1.00;;;;;;5001440;28;20041;-78
2023/12/12 11:02:45;;;;;;;46.35;32.47;;;13.00;64.10;;;;;;4999180;28;20053;-75
2023/12/12 11:05:14;;;;;;;45.17;30.67;;;13.20;1.00;;;;;;5000773;28;20188;-75
2023/12/12 11:07:45;;;;;;;46.97;32.40;;;13.30;1.00;;;;;;5001890;28;20061;-77
2023/12/12 11:10:15;;;;;;;51.58;34.95;;;13.40;99.90;;;;;;5000853;28;20487;-76
2023/12/12 11:12:47;;;;;;;36.60;24.27;;;13.50;99.90;;;;;;5004229;28;20068;-76
2023/12/12 11:15:17;;;;;;;28.58;19.90;;;13.60;1.00;;;;;;4999853;28;20042;-77
2023/12/12 11:17:47;;;;;;;28.83;21.25;;;13.60;1.00;;;;;;4998688;28;20045;-77
2023/12/12 11:20:16;;;;;;;26.65;17.92;;;13.70;99.90;;;;;;5001823;28;20046;-76
2023/12/12 11:22:48;;;;;;;25.98;18.27;;;13.70;99.90;;;;;;4998629;28;20068;-78
2023/12/12 11:25:19;;;;;;;27.70;19.02;;;13.70;99.90;;;;;;4997319;28;20387;-78
2023/12/12 11:27:49;;;;;;;27.08;19.25;;;13.80;99.90;;;;;;4997558;28;20043;-77
2023/12/12 11:30:19;;;;;;;28.77;18.58;;;13.90;54.70;;;;;;4999465;28;20109;-77
2023/12/12 11:32:48;;;;;;;18.60;13.18;;;13.90;1.00;;;;;;4998567;28;20037;-77
2023/12/12 11:35:33;;;;;;;13.48;8.98;;;13.90;1.00;;;;;;5000109;28;20088;-75
2023/12/12 11:38:04;;;;;;;12.57;9.77;;;14.00;1.00;;;;;;4998607;28;20515;-77
2023/12/12 11:40:33;;;;;;;16.48;10.73;;;14.00;1.00;;;;;;4999712;28;20066;-75
2023/12/12 11:43:18;;;;;;;13.95;10.40;;;14.10;1.00;;;;;;4996906;28;20076;-78
2023/12/12 11:45:48;;;;;;;14.07;8.10;;;14.10;1.00;;;;;;5000243;28;20097;-77
2023/12/12 11:48:16;;;;;;;10.18;7.15;;;14.10;99.90;;;;;;4999730;28;20038;-77
2023/12/12 11:50:45;;;;;;;12.25;8.27;;;14.20;99.90;;;;;;4999581;28;20133;-78
2023/12/12 11:53:13;;;;;;;15.93;8.77;;;14.30;99.90;;;;;;5000583;28;20638;-79
2023/12/12 11:55:42;;;;;;;13.77;8.88;;;14.50;99.90;;;;;;5001306;28;20806;-75
2023/12/12 11:58:10;;;;;;;14.38;9.07;;;14.60;99.90;;;;;;5003057;28;20054;-75
2023/12/12 12:00:40;;;;;;;12.63;8.35;;;14.70;49.10;;;;;;5005372;28;20066;-76
2023/12/12 12:03:09;;;;;;;13.43;8.40;;;14.60;1.00;;;;;;5002754;28;20042;-77
2023/12/12 12:05:37;;;;;;;16.63;11.00;;;14.60;1.00;;;;;;5004557;28;20100;-76
2023/12/12 12:08:06;;;;;;;12.13;8.30;;;14.60;1.00;;;;;;5004653;28;20030;-76
2023/12/12 12:10:33;;;;;;;13.35;8.20;;;14.50;1.00;;;;;;5010144;28;20035;-76
2023/12/12 12:13:01;;;;;;;12.77;8.02;;;14.50;1.00;;;;;;5002551;28;20116;-76
2023/12/12 12:15:29;;;;;;;12.85;8.55;;;14.60;1.00;;;;;;5004246;28;20162;-76
2023/12/12 12:17:58;;;;;;;14.77;9.13;;;14.70;1.00;;;;;;5007962;28;20050;-76
2023/12/12 12:20:27;;;;;;;13.05;8.57;;;14.80;1.00;;;;;;5015671;28;20111;-77
2023/12/12 12:22:57;;;;;;;16.23;10.88;;;15.00;1.00;;;;;;5006300;28;20116;-78
2023/12/12 12:25:26;;;;;;;16.30;10.95;;;15.10;1.00;;;;;;5003106;28;20042;-74
2023/12/12 12:27:55;;;;;;;16.00;11.23;;;15.20;1.00;;;;;;5005376;28;20053;-77
2023/12/12 12:30:25;;;;;;;19.50;11.00;;;15.40;1.00;;;;;;5003583;28;20042;-77
2023/12/12 12:33:14;;;;;;;18.98;11.70;;;15.40;1.00;;;;;;5003904;28;20038;-77
2023/12/12 12:35:52;;;;;;;24.45;13.90;;;15.40;1.00;;;;;;4999031;28;20058;-77
2023/12/12 12:38:27;;;;;;;19.90;13.35;;;15.40;1.00;;;;;;5003628;28;20085;-78